THY5HR LTCA-LTFM
Flight info
| Callsign | THY5HR |
|---|---|
| Flight time | 1h 40m |
| Altitude | 36000 |
| Route | ARPUT UW710 SIV UA4 TIMOP UT97 KANQO |
| Aircraft | A320/M-SDE3FGHIRWY/LB1 |
Departure
| Time | 2026-04-26 14:22 |
|---|---|
| Airport | Elazığ Airport (LTCA) |
Arrival
| Time | 2026-04-26 16:03 |
|---|---|
| Airport | İstanbul Airport (LTFM) |
| Time | Latitude | Longitude | Altitude | Speed | Heading |
|---|---|---|---|---|---|
| 2026-04-26 13:31 | 38.59965 | 39.26876 | 2915 ft | 0 kts | 345° |
| 2026-04-26 14:11 | 38.59964 | 39.26876 | 2916 ft | 2 kts | 345° |
| 2026-04-26 14:12 | 38.59940 | 39.26883 | 2913 ft | 4 kts | 351° |
| 2026-04-26 14:12 | 38.59914 | 39.26886 | 2914 ft | 4 kts | 1° |
| 2026-04-26 14:12 | 38.59888 | 39.26882 | 2913 ft | 4 kts | 25° |
| 2026-04-26 14:12 | 38.59873 | 39.26866 | 2908 ft | 3 kts | 76° |
| 2026-04-26 14:15 | 38.59874 | 39.26870 | 2908 ft | 1 kts | 76° |
| 2026-04-26 14:16 | 38.59877 | 39.26887 | 2912 ft | 3 kts | 75° |
| 2026-04-26 14:16 | 38.59883 | 39.26916 | 2915 ft | 4 kts | 75° |
| 2026-04-26 14:16 | 38.59892 | 39.26959 | 2915 ft | 6 kts | 75° |
| 2026-04-26 14:16 | 38.59904 | 39.27014 | 2913 ft | 7 kts | 76° |
| 2026-04-26 14:17 | 38.59918 | 39.27084 | 2910 ft | 9 kts | 75° |
| 2026-04-26 14:17 | 38.59914 | 39.27160 | 2912 ft | 10 kts | 134° |
| 2026-04-26 14:17 | 38.59842 | 39.27195 | 2911 ft | 13 kts | 166° |
| 2026-04-26 14:17 | 38.59766 | 39.27150 | 2910 ft | 14 kts | 250° |
| 2026-04-26 14:18 | 38.59744 | 39.27029 | 2910 ft | 15 kts | 256° |
| 2026-04-26 14:18 | 38.59705 | 39.26911 | 2910 ft | 14 kts | 210° |
| 2026-04-26 14:18 | 38.59649 | 39.26911 | 2913 ft | 0 kts | 164° |
| 2026-04-26 14:19 | 38.59651 | 39.26911 | 2912 ft | 0 kts | 165° |
| 2026-04-26 14:19 | 38.59635 | 39.26916 | 2918 ft | 4 kts | 165° |
| 2026-04-26 14:19 | 38.59618 | 39.26922 | 2923 ft | 0 kts | 165° |
| 2026-04-26 14:20 | 38.59600 | 39.26928 | 2928 ft | 7 kts | 165° |
| 2026-04-26 14:20 | 38.59578 | 39.26936 | 2932 ft | 0 kts | 165° |
| 2026-04-26 14:20 | 38.59570 | 39.26938 | 2933 ft | 3 kts | 165° |
| 2026-04-26 14:20 | 38.59541 | 39.26952 | 2931 ft | 5 kts | 146° |
| 2026-04-26 14:21 | 38.59536 | 39.26988 | 2935 ft | 5 kts | 80° |
| 2026-04-26 14:21 | 38.59544 | 39.27026 | 2931 ft | 0 kts | 76° |
| 2026-04-26 14:21 | 38.59596 | 39.27295 | 2933 ft | 71 kts | 75° |
| 2026-04-26 14:22 | 38.59776 | 39.28215 | 2937 ft | 139 kts | 76° |
| 2026-04-26 14:22 | 38.60048 | 39.29587 | 3180 ft | 166 kts | 76° |
| 2026-04-26 14:22 | 38.60400 | 39.30963 | 4024 ft | 161 kts | 71° |
| 2026-04-26 14:22 | 38.60816 | 39.32307 | 4613 ft | 165 kts | 69° |
| 2026-04-26 14:23 | 38.61265 | 39.33712 | 4833 ft | 178 kts | 68° |
| 2026-04-26 14:23 | 38.61757 | 39.35241 | 5094 ft | 194 kts | 69° |
| 2026-04-26 14:23 | 38.62290 | 39.36914 | 5371 ft | 213 kts | 69° |
| 2026-04-26 14:23 | 38.62868 | 39.38745 | 5692 ft | 232 kts | 69° |
| 2026-04-26 14:24 | 38.63740 | 39.40550 | 6174 ft | 247 kts | 39° |
| 2026-04-26 14:24 | 38.65325 | 39.41423 | 6722 ft | 257 kts | 2° |
| 2026-04-26 14:24 | 38.67068 | 39.40925 | 7252 ft | 264 kts | 326° |
| 2026-04-26 14:24 | 38.68302 | 39.39193 | 7797 ft | 271 kts | 291° |
| 2026-04-26 14:25 | 38.68763 | 39.36827 | 8390 ft | 279 kts | 275° |
| 2026-04-26 14:25 | 38.68982 | 39.34337 | 9126 ft | 283 kts | 275° |
| 2026-04-26 14:25 | 38.69201 | 39.31825 | 9921 ft | 285 kts | 275° |
| 2026-04-26 14:25 | 38.69422 | 39.29286 | 10556 ft | 293 kts | 275° |
| 2026-04-26 14:26 | 38.69701 | 39.26633 | 10914 ft | 310 kts | 280° |
| 2026-04-26 14:26 | 38.70237 | 39.23880 | 11235 ft | 327 kts | 286° |
| 2026-04-26 14:26 | 38.71126 | 39.21141 | 11694 ft | 338 kts | 295° |
| 2026-04-26 14:26 | 38.72300 | 39.18506 | 12326 ft | 342 kts | 300° |
| 2026-04-26 14:27 | 38.73603 | 39.15936 | 12974 ft | 346 kts | 302° |
| 2026-04-26 14:27 | 38.74952 | 39.13369 | 13657 ft | 348 kts | 302° |
| 2026-04-26 14:27 | 38.76296 | 39.10772 | 14258 ft | 351 kts | 301° |
| 2026-04-26 14:27 | 38.77618 | 39.08134 | 14825 ft | 353 kts | 300° |
| 2026-04-26 14:28 | 38.78922 | 39.05450 | 15388 ft | 356 kts | 299° |
| 2026-04-26 14:28 | 38.80217 | 39.02726 | 15957 ft | 359 kts | 299° |
| 2026-04-26 14:28 | 38.81510 | 38.99974 | 16519 ft | 362 kts | 299° |
| 2026-04-26 14:28 | 38.82810 | 38.97200 | 17074 ft | 365 kts | 299° |
| 2026-04-26 14:29 | 38.84125 | 38.94403 | 17635 ft | 368 kts | 299° |
| 2026-04-26 14:29 | 38.85457 | 38.91590 | 18185 ft | 371 kts | 299° |
| 2026-04-26 14:29 | 38.86809 | 38.88757 | 18682 ft | 374 kts | 299° |
| 2026-04-26 14:29 | 38.88178 | 38.85902 | 19212 ft | 376 kts | 299° |
| 2026-04-26 14:30 | 38.89551 | 38.83030 | 19739 ft | 379 kts | 299° |
| 2026-04-26 14:30 | 38.90930 | 38.80140 | 20275 ft | 381 kts | 299° |
| 2026-04-26 14:30 | 38.92317 | 38.77227 | 20803 ft | 384 kts | 299° |
| 2026-04-26 14:30 | 38.93712 | 38.74292 | 21305 ft | 386 kts | 299° |
| 2026-04-26 14:31 | 38.95113 | 38.71336 | 21796 ft | 389 kts | 299° |
| 2026-04-26 14:31 | 38.96522 | 38.68359 | 22286 ft | 391 kts | 299° |
| 2026-04-26 14:31 | 38.97941 | 38.65364 | 22762 ft | 394 kts | 299° |
| 2026-04-26 14:31 | 38.99372 | 38.62347 | 23229 ft | 397 kts | 299° |
| 2026-04-26 14:32 | 39.00814 | 38.59309 | 23669 ft | 399 kts | 299° |
| 2026-04-26 14:32 | 39.02261 | 38.56250 | 24038 ft | 402 kts | 299° |
| 2026-04-26 14:32 | 39.03717 | 38.53167 | 24407 ft | 404 kts | 299° |
| 2026-04-26 14:32 | 39.05180 | 38.50066 | 24767 ft | 407 kts | 299° |
| 2026-04-26 14:33 | 39.06649 | 38.46940 | 25115 ft | 409 kts | 299° |
| 2026-04-26 14:33 | 39.08125 | 38.43797 | 25455 ft | 411 kts | 299° |
| 2026-04-26 14:33 | 39.09609 | 38.40633 | 25787 ft | 414 kts | 299° |
| 2026-04-26 14:33 | 39.11104 | 38.37448 | 26121 ft | 417 kts | 299° |
| 2026-04-26 14:34 | 39.12607 | 38.34245 | 26432 ft | 419 kts | 299° |
| 2026-04-26 14:34 | 39.14121 | 38.31029 | 26727 ft | 421 kts | 299° |
| 2026-04-26 14:34 | 39.15644 | 38.27794 | 27038 ft | 424 kts | 299° |
| 2026-04-26 14:34 | 39.17173 | 38.24534 | 27353 ft | 426 kts | 299° |
| 2026-04-26 14:35 | 39.18707 | 38.21260 | 27656 ft | 428 kts | 299° |
| 2026-04-26 14:35 | 39.20247 | 38.17965 | 27962 ft | 431 kts | 299° |
| 2026-04-26 14:35 | 39.21792 | 38.14645 | 28265 ft | 433 kts | 299° |
| 2026-04-26 14:35 | 39.23341 | 38.11308 | 28576 ft | 435 kts | 299° |
| 2026-04-26 14:36 | 39.24901 | 38.07948 | 28878 ft | 437 kts | 298° |
| 2026-04-26 14:36 | 39.26467 | 38.04576 | 29176 ft | 439 kts | 298° |
| 2026-04-26 14:36 | 39.28043 | 38.01183 | 29488 ft | 441 kts | 299° |
| 2026-04-26 14:36 | 39.29109 | 37.98892 | 29755 ft | 441 kts | 299° |
| 2026-04-26 14:37 | 39.31196 | 37.94402 | 30278 ft | 440 kts | 298° |
| 2026-04-26 14:37 | 39.32257 | 37.92116 | 30521 ft | 439 kts | 298° |
| 2026-04-26 14:37 | 39.33825 | 37.88730 | 30878 ft | 439 kts | 298° |
| 2026-04-26 14:37 | 39.35390 | 37.85344 | 31225 ft | 439 kts | 298° |
| 2026-04-26 14:38 | 39.36949 | 37.81958 | 31567 ft | 439 kts | 298° |
| 2026-04-26 14:38 | 39.38503 | 37.78575 | 31918 ft | 438 kts | 298° |
| 2026-04-26 14:38 | 39.40060 | 37.75183 | 32262 ft | 438 kts | 298° |
| 2026-04-26 14:38 | 39.41618 | 37.71792 | 32607 ft | 438 kts | 298° |
| 2026-04-26 14:39 | 39.43176 | 37.68400 | 32952 ft | 438 kts | 297° |
| 2026-04-26 14:39 | 39.44732 | 37.65017 | 33296 ft | 438 kts | 297° |
| 2026-04-26 14:39 | 39.46290 | 37.61630 | 33636 ft | 438 kts | 297° |
| 2026-04-26 14:39 | 39.47845 | 37.58240 | 33987 ft | 437 kts | 297° |
| 2026-04-26 14:40 | 39.49393 | 37.54851 | 34287 ft | 437 kts | 297° |
| 2026-04-26 14:40 | 39.50935 | 37.51472 | 34599 ft | 436 kts | 297° |
| 2026-04-26 14:40 | 39.52472 | 37.48101 | 34908 ft | 434 kts | 297° |
| 2026-04-26 14:40 | 39.54004 | 37.44735 | 35204 ft | 433 kts | 297° |
| 2026-04-26 14:41 | 39.55529 | 37.41377 | 35477 ft | 432 kts | 297° |
| 2026-04-26 14:41 | 39.57045 | 37.38032 | 35743 ft | 430 kts | 297° |
| 2026-04-26 14:41 | 39.58561 | 37.34686 | 35961 ft | 430 kts | 297° |
| 2026-04-26 14:42 | 39.61609 | 37.27950 | 36024 ft | 438 kts | 297° |
| 2026-04-26 14:42 | 39.64702 | 37.21115 | 36035 ft | 440 kts | 297° |
| 2026-04-26 14:43 | 39.67787 | 37.14271 | 36052 ft | 439 kts | 297° |
| 2026-04-26 14:43 | 39.70854 | 37.07419 | 36066 ft | 439 kts | 297° |
| 2026-04-26 14:44 | 39.73924 | 37.00567 | 36080 ft | 439 kts | 297° |
| 2026-04-26 14:44 | 39.76994 | 36.93708 | 36089 ft | 439 kts | 297° |
| 2026-04-26 14:45 | 39.79320 | 36.86452 | 36087 ft | 434 kts | 281° |
| 2026-04-26 14:45 | 39.80404 | 36.78740 | 36087 ft | 434 kts | 278° |
| 2026-04-26 14:46 | 39.81448 | 36.71013 | 36078 ft | 434 kts | 278° |
| 2026-04-26 14:46 | 39.82489 | 36.63277 | 36060 ft | 434 kts | 278° |
| 2026-04-26 14:47 | 39.83526 | 36.55530 | 36044 ft | 435 kts | 278° |
| 2026-04-26 14:47 | 39.84572 | 36.47788 | 36019 ft | 435 kts | 278° |
| 2026-04-26 14:48 | 39.85607 | 36.40034 | 36000 ft | 435 kts | 278° |
| 2026-04-26 14:48 | 39.86648 | 36.32272 | 35997 ft | 435 kts | 279° |
| 2026-04-26 14:49 | 39.87775 | 36.24528 | 35989 ft | 435 kts | 279° |
| 2026-04-26 14:49 | 39.88850 | 36.16783 | 35988 ft | 435 kts | 278° |
| 2026-04-26 14:50 | 39.89872 | 36.09013 | 35984 ft | 435 kts | 278° |
| 2026-04-26 14:50 | 39.90876 | 36.01242 | 35987 ft | 435 kts | 278° |
| 2026-04-26 14:51 | 39.91873 | 35.93474 | 35980 ft | 435 kts | 278° |
| 2026-04-26 14:51 | 39.92882 | 35.85713 | 35977 ft | 435 kts | 278° |
| 2026-04-26 14:52 | 39.93895 | 35.77943 | 35978 ft | 435 kts | 278° |
| 2026-04-26 14:52 | 39.94897 | 35.70167 | 35977 ft | 435 kts | 278° |
| 2026-04-26 14:53 | 39.95886 | 35.62389 | 35974 ft | 435 kts | 278° |
| 2026-04-26 14:53 | 39.96868 | 35.54612 | 35978 ft | 435 kts | 278° |
| 2026-04-26 14:54 | 39.97846 | 35.46821 | 35977 ft | 435 kts | 278° |
| 2026-04-26 14:54 | 39.98829 | 35.39040 | 35974 ft | 435 kts | 278° |
| 2026-04-26 14:55 | 40.00501 | 35.31478 | 35971 ft | 436 kts | 289° |
| 2026-04-26 14:55 | 40.02604 | 35.24062 | 35974 ft | 436 kts | 289° |
| 2026-04-26 14:56 | 40.04675 | 35.16630 | 35977 ft | 436 kts | 289° |
| 2026-04-26 14:56 | 40.06732 | 35.09193 | 35978 ft | 436 kts | 289° |
| 2026-04-26 14:57 | 40.08803 | 35.01769 | 35972 ft | 436 kts | 289° |
| 2026-04-26 14:57 | 40.10878 | 34.94330 | 35970 ft | 435 kts | 289° |
| 2026-04-26 14:58 | 40.12942 | 34.86893 | 35974 ft | 435 kts | 289° |
| 2026-04-26 14:58 | 40.14994 | 34.79445 | 35972 ft | 435 kts | 289° |
| 2026-04-26 14:59 | 40.17042 | 34.71999 | 35968 ft | 435 kts | 289° |
| 2026-04-26 14:59 | 40.19095 | 34.64505 | 35968 ft | 435 kts | 289° |
| 2026-04-26 15:00 | 40.21131 | 34.57062 | 35959 ft | 435 kts | 289° |
| 2026-04-26 15:00 | 40.23160 | 34.49601 | 35958 ft | 435 kts | 289° |
| 2026-04-26 15:01 | 40.25183 | 34.42139 | 35955 ft | 435 kts | 290° |
| 2026-04-26 15:01 | 40.27202 | 34.34677 | 35945 ft | 435 kts | 290° |
| 2026-04-26 15:02 | 40.29220 | 34.27224 | 35937 ft | 434 kts | 290° |
| 2026-04-26 15:02 | 40.31239 | 34.19761 | 35929 ft | 435 kts | 290° |
| 2026-04-26 15:03 | 40.33249 | 34.12294 | 35938 ft | 435 kts | 290° |
| 2026-04-26 15:03 | 40.35256 | 34.04815 | 35935 ft | 435 kts | 290° |
| 2026-04-26 15:04 | 40.37250 | 33.97324 | 35938 ft | 435 kts | 290° |
| 2026-04-26 15:04 | 40.39247 | 33.89827 | 35936 ft | 435 kts | 290° |
| 2026-04-26 15:05 | 40.41240 | 33.82330 | 35937 ft | 435 kts | 290° |
| 2026-04-26 15:05 | 40.43221 | 33.74827 | 35939 ft | 435 kts | 290° |
| 2026-04-26 15:06 | 40.45771 | 33.67673 | 35935 ft | 433 kts | 304° |
| 2026-04-26 15:06 | 40.49166 | 33.61131 | 35939 ft | 433 kts | 304° |
| 2026-04-26 15:07 | 40.54234 | 33.51295 | 35952 ft | 433 kts | 304° |
| 2026-04-26 15:07 | 40.57597 | 33.44729 | 35961 ft | 432 kts | 304° |
| 2026-04-26 15:08 | 40.60950 | 33.38172 | 35969 ft | 431 kts | 304° |
| 2026-04-26 15:08 | 40.64297 | 33.31633 | 35971 ft | 430 kts | 304° |
| 2026-04-26 15:09 | 40.67635 | 33.25098 | 35979 ft | 429 kts | 304° |
| 2026-04-26 15:09 | 40.70952 | 33.18569 | 35983 ft | 428 kts | 304° |
| 2026-04-26 15:10 | 40.73699 | 33.13137 | 35986 ft | 428 kts | 302° |
| 2026-04-26 15:10 | 40.76879 | 33.04983 | 35988 ft | 428 kts | 297° |
| 2026-04-26 15:11 | 40.79530 | 32.97961 | 35988 ft | 427 kts | 297° |
| 2026-04-26 15:11 | 40.82177 | 32.90942 | 35992 ft | 427 kts | 297° |
| 2026-04-26 15:12 | 40.84812 | 32.83914 | 35990 ft | 427 kts | 297° |
| 2026-04-26 15:12 | 40.87433 | 32.76879 | 35988 ft | 427 kts | 297° |
| 2026-04-26 15:13 | 40.90062 | 32.69852 | 35990 ft | 427 kts | 297° |
| 2026-04-26 15:13 | 40.92690 | 32.62820 | 35989 ft | 426 kts | 297° |
| 2026-04-26 15:14 | 40.94882 | 32.56920 | 35990 ft | 426 kts | 296° |
| 2026-04-26 15:14 | 40.97489 | 32.49888 | 35999 ft | 425 kts | 296° |
| 2026-04-26 15:15 | 41.00084 | 32.42856 | 36003 ft | 425 kts | 296° |
| 2026-04-26 15:15 | 41.02676 | 32.35841 | 36002 ft | 424 kts | 296° |
| 2026-04-26 15:16 | 41.05264 | 32.28822 | 36000 ft | 424 kts | 296° |
| 2026-04-26 15:16 | 41.07849 | 32.21784 | 35997 ft | 425 kts | 296° |
| 2026-04-26 15:17 | 41.09993 | 32.15923 | 35997 ft | 425 kts | 296° |
| 2026-04-26 15:17 | 41.12836 | 32.07596 | 36003 ft | 424 kts | 288° |
| 2026-04-26 15:18 | 41.13825 | 31.99883 | 35999 ft | 426 kts | 277° |
| 2026-04-26 15:18 | 41.14409 | 31.92053 | 36006 ft | 426 kts | 277° |
| 2026-04-26 15:19 | 41.14991 | 31.84234 | 36008 ft | 426 kts | 277° |
| 2026-04-26 15:19 | 41.15569 | 31.76422 | 36009 ft | 425 kts | 277° |
| 2026-04-26 15:20 | 41.16144 | 31.68618 | 36006 ft | 424 kts | 277° |
| 2026-04-26 15:20 | 41.16712 | 31.60821 | 35999 ft | 425 kts | 277° |
| 2026-04-26 15:21 | 41.17268 | 31.53015 | 35999 ft | 425 kts | 277° |
| 2026-04-26 15:21 | 41.17827 | 31.45206 | 36005 ft | 425 kts | 277° |
| 2026-04-26 15:22 | 41.18379 | 31.37399 | 35657 ft | 427 kts | 277° |
| 2026-04-26 15:22 | 41.18653 | 31.33505 | 35287 ft | 421 kts | 277° |
| 2026-04-26 15:22 | 41.18919 | 31.29661 | 34829 ft | 417 kts | 277° |
| 2026-04-26 15:23 | 41.19181 | 31.25844 | 34341 ft | 414 kts | 277° |
| 2026-04-26 15:23 | 41.19439 | 31.22048 | 33851 ft | 411 kts | 277° |
| 2026-04-26 15:23 | 41.19697 | 31.18285 | 33352 ft | 407 kts | 277° |
| 2026-04-26 15:23 | 41.19955 | 31.14563 | 32888 ft | 403 kts | 277° |
| 2026-04-26 15:24 | 41.20209 | 31.10878 | 32420 ft | 399 kts | 276° |
| 2026-04-26 15:24 | 41.20455 | 31.07233 | 31966 ft | 395 kts | 276° |
| 2026-04-26 15:24 | 41.20699 | 31.03617 | 31499 ft | 391 kts | 276° |
| 2026-04-26 15:24 | 41.20941 | 31.00028 | 31036 ft | 389 kts | 276° |
| 2026-04-26 15:25 | 41.21180 | 30.96470 | 30586 ft | 386 kts | 276° |
| 2026-04-26 15:25 | 41.21334 | 30.94125 | 30289 ft | 385 kts | 276° |
| 2026-04-26 15:25 | 41.21642 | 30.89404 | 29636 ft | 382 kts | 276° |
| 2026-04-26 15:25 | 41.21871 | 30.85912 | 29196 ft | 378 kts | 276° |
| 2026-04-26 15:26 | 41.22099 | 30.82449 | 28754 ft | 375 kts | 276° |
| 2026-04-26 15:26 | 41.22324 | 30.79008 | 28322 ft | 372 kts | 276° |
| 2026-04-26 15:26 | 41.22764 | 30.75637 | 27899 ft | 369 kts | 286° |
| 2026-04-26 15:26 | 41.23621 | 30.72432 | 27653 ft | 373 kts | 292° |
| 2026-04-26 15:27 | 41.24639 | 30.69187 | 27379 ft | 383 kts | 292° |
| 2026-04-26 15:27 | 41.25653 | 30.65928 | 27105 ft | 381 kts | 292° |
| 2026-04-26 15:27 | 41.26657 | 30.62679 | 26833 ft | 379 kts | 292° |
| 2026-04-26 15:27 | 41.27653 | 30.59437 | 26571 ft | 378 kts | 292° |
| 2026-04-26 15:28 | 41.28641 | 30.56209 | 26282 ft | 376 kts | 292° |
| 2026-04-26 15:28 | 41.29623 | 30.52994 | 26009 ft | 375 kts | 292° |
| 2026-04-26 15:28 | 41.30604 | 30.49794 | 25744 ft | 373 kts | 292° |
| 2026-04-26 15:28 | 41.31583 | 30.46607 | 25478 ft | 372 kts | 292° |
| 2026-04-26 15:29 | 41.32553 | 30.43428 | 25202 ft | 370 kts | 292° |
| 2026-04-26 15:29 | 41.33517 | 30.40262 | 24933 ft | 369 kts | 292° |
| 2026-04-26 15:29 | 41.35441 | 30.33968 | 24411 ft | 366 kts | 292° |
| 2026-04-26 15:30 | 41.37350 | 30.27717 | 23847 ft | 363 kts | 292° |
| 2026-04-26 15:30 | 41.38298 | 30.24606 | 23379 ft | 363 kts | 291° |
| 2026-04-26 15:30 | 41.39243 | 30.21508 | 22936 ft | 359 kts | 291° |
| 2026-04-26 15:31 | 41.40175 | 30.18444 | 22519 ft | 355 kts | 291° |
| 2026-04-26 15:31 | 41.42012 | 30.12375 | 21705 ft | 351 kts | 291° |
| 2026-04-26 15:31 | 41.42941 | 30.09379 | 21299 ft | 349 kts | 295° |
| 2026-04-26 15:32 | 41.45296 | 30.05024 | 20626 ft | 347 kts | 316° |
| 2026-04-26 15:32 | 41.47917 | 30.02595 | 20092 ft | 347 kts | 330° |
| 2026-04-26 15:32 | 41.50053 | 30.01111 | 19693 ft | 345 kts | 330° |
| 2026-04-26 15:33 | 41.52170 | 29.99631 | 19294 ft | 343 kts | 330° |
| 2026-04-26 15:33 | 41.54273 | 29.98146 | 18899 ft | 341 kts | 330° |
| 2026-04-26 15:33 | 41.56340 | 29.96674 | 18694 ft | 331 kts | 330° |
| 2026-04-26 15:33 | 41.58342 | 29.95245 | 18484 ft | 323 kts | 330° |
| 2026-04-26 15:34 | 41.60311 | 29.93844 | 18152 ft | 319 kts | 330° |
| 2026-04-26 15:34 | 41.62259 | 29.92458 | 17788 ft | 315 kts | 330° |
| 2026-04-26 15:34 | 41.64185 | 29.91088 | 17446 ft | 313 kts | 330° |
| 2026-04-26 15:34 | 41.66101 | 29.89720 | 17114 ft | 311 kts | 330° |
| 2026-04-26 15:35 | 41.68004 | 29.88364 | 16782 ft | 309 kts | 330° |
| 2026-04-26 15:35 | 41.69895 | 29.87016 | 16451 ft | 307 kts | 330° |
| 2026-04-26 15:35 | 41.71774 | 29.85674 | 16121 ft | 305 kts | 330° |
| 2026-04-26 15:35 | 41.73645 | 29.84340 | 15786 ft | 304 kts | 330° |
| 2026-04-26 15:36 | 41.75506 | 29.83016 | 15452 ft | 302 kts | 330° |
| 2026-04-26 15:36 | 41.77355 | 29.81696 | 15117 ft | 300 kts | 330° |
| 2026-04-26 15:36 | 41.79193 | 29.80384 | 14784 ft | 299 kts | 330° |
| 2026-04-26 15:36 | 41.81016 | 29.79067 | 14453 ft | 296 kts | 327° |
| 2026-04-26 15:37 | 41.82596 | 29.77332 | 14140 ft | 293 kts | 310° |
| 2026-04-26 15:37 | 41.83701 | 29.75054 | 13796 ft | 292 kts | 294° |
| 2026-04-26 15:37 | 41.84254 | 29.72441 | 13368 ft | 293 kts | 277° |
| 2026-04-26 15:37 | 41.84352 | 29.69712 | 12973 ft | 292 kts | 274° |
| 2026-04-26 15:38 | 41.84420 | 29.66992 | 12579 ft | 291 kts | 274° |
| 2026-04-26 15:38 | 41.84493 | 29.64289 | 12191 ft | 290 kts | 274° |
| 2026-04-26 15:38 | 41.84567 | 29.61587 | 11811 ft | 289 kts | 274° |
| 2026-04-26 15:38 | 41.84535 | 29.58913 | 11471 ft | 287 kts | 264° |
| 2026-04-26 15:39 | 41.84037 | 29.56316 | 11097 ft | 289 kts | 250° |
| 2026-04-26 15:39 | 41.83117 | 29.53910 | 10700 ft | 291 kts | 244° |
| 2026-04-26 15:39 | 41.82140 | 29.51534 | 10311 ft | 291 kts | 244° |
| 2026-04-26 15:39 | 41.81488 | 29.49939 | 10151 ft | 287 kts | 243° |
| 2026-04-26 15:40 | 41.79808 | 29.47312 | 10001 ft | 278 kts | 217° |
| 2026-04-26 15:40 | 41.78073 | 29.46217 | 10006 ft | 273 kts | 196° |
| 2026-04-26 15:40 | 41.76184 | 29.45947 | 10008 ft | 279 kts | 183° |
| 2026-04-26 15:40 | 41.74239 | 29.45910 | 10010 ft | 279 kts | 183° |
| 2026-04-26 15:41 | 41.72273 | 29.45867 | 10009 ft | 279 kts | 183° |
| 2026-04-26 15:41 | 41.70357 | 29.45826 | 10014 ft | 279 kts | 183° |
| 2026-04-26 15:41 | 41.68393 | 29.45785 | 10008 ft | 279 kts | 183° |
| 2026-04-26 15:41 | 41.66451 | 29.45742 | 10010 ft | 279 kts | 183° |
| 2026-04-26 15:42 | 41.64516 | 29.45697 | 10011 ft | 279 kts | 183° |
| 2026-04-26 15:42 | 41.62576 | 29.45663 | 10007 ft | 279 kts | 182° |
| 2026-04-26 15:42 | 41.60637 | 29.45681 | 10009 ft | 279 kts | 181° |
| 2026-04-26 15:42 | 41.58698 | 29.45723 | 10010 ft | 279 kts | 181° |
| 2026-04-26 15:43 | 41.56759 | 29.45770 | 10009 ft | 279 kts | 181° |
| 2026-04-26 15:43 | 41.54820 | 29.45815 | 10012 ft | 279 kts | 181° |
| 2026-04-26 15:43 | 41.51038 | 29.45007 | 10016 ft | 276 kts | 197° |
| 2026-04-26 15:44 | 41.49177 | 29.44376 | 10013 ft | 276 kts | 197° |
| 2026-04-26 15:44 | 41.45460 | 29.43123 | 10014 ft | 275 kts | 197° |
| 2026-04-26 15:44 | 41.43637 | 29.42370 | 10014 ft | 273 kts | 207° |
| 2026-04-26 15:45 | 41.40313 | 29.39954 | 10013 ft | 272 kts | 212° |
| 2026-04-26 15:45 | 41.38661 | 29.38728 | 10014 ft | 272 kts | 212° |
| 2026-04-26 15:46 | 41.35372 | 29.36237 | 10014 ft | 271 kts | 218° |
| 2026-04-26 15:46 | 41.33959 | 29.34607 | 10017 ft | 269 kts | 227° |
| 2026-04-26 15:46 | 41.32620 | 29.32872 | 10016 ft | 269 kts | 227° |
| 2026-04-26 15:46 | 41.32186 | 29.32312 | 10018 ft | 269 kts | 227° |
| 2026-04-26 15:47 | 41.30325 | 29.29059 | 10020 ft | 262 kts | 255° |
| 2026-04-26 15:47 | 41.30676 | 29.24445 | 9740 ft | 255 kts | 303° |
| 2026-04-26 15:47 | 41.31862 | 29.22733 | 9474 ft | 253 kts | 322° |
| 2026-04-26 15:48 | 41.33248 | 29.21298 | 9203 ft | 252 kts | 321° |
| 2026-04-26 15:48 | 41.34626 | 29.19855 | 8971 ft | 252 kts | 321° |
| 2026-04-26 15:48 | 41.35997 | 29.18411 | 8724 ft | 251 kts | 321° |
| 2026-04-26 15:48 | 41.37357 | 29.16973 | 8476 ft | 249 kts | 321° |
| 2026-04-26 15:49 | 41.38713 | 29.15535 | 8232 ft | 248 kts | 321° |
| 2026-04-26 15:49 | 41.40060 | 29.14107 | 7985 ft | 247 kts | 321° |
| 2026-04-26 15:49 | 41.41400 | 29.12689 | 7765 ft | 245 kts | 321° |
| 2026-04-26 15:49 | 41.42733 | 29.11280 | 7548 ft | 244 kts | 321° |
| 2026-04-26 15:50 | 41.44058 | 29.09878 | 7332 ft | 242 kts | 321° |
| 2026-04-26 15:50 | 41.45373 | 29.08483 | 7098 ft | 241 kts | 321° |
| 2026-04-26 15:50 | 41.46680 | 29.07098 | 6895 ft | 239 kts | 321° |
| 2026-04-26 15:50 | 41.47978 | 29.05723 | 6679 ft | 238 kts | 321° |
| 2026-04-26 15:51 | 41.49268 | 29.04356 | 6466 ft | 236 kts | 321° |
| 2026-04-26 15:51 | 41.50119 | 29.03455 | 6320 ft | 235 kts | 321° |
| 2026-04-26 15:51 | 41.51394 | 29.02105 | 6099 ft | 234 kts | 320° |
| 2026-04-26 15:51 | 41.53095 | 29.00299 | 5813 ft | 233 kts | 320° |
| 2026-04-26 15:52 | 41.53936 | 28.99404 | 5672 ft | 233 kts | 320° |
| 2026-04-26 15:52 | 41.55204 | 28.98057 | 5460 ft | 233 kts | 320° |
| 2026-04-26 15:52 | 41.56473 | 28.96707 | 5255 ft | 232 kts | 320° |
| 2026-04-26 15:52 | 41.57318 | 28.95811 | 5132 ft | 227 kts | 320° |
| 2026-04-26 15:53 | 41.58742 | 28.93869 | 5006 ft | 221 kts | 308° |
| 2026-04-26 15:53 | 41.59716 | 28.92280 | 5001 ft | 221 kts | 308° |
| 2026-04-26 15:53 | 41.60695 | 28.90695 | 5006 ft | 221 kts | 308° |
| 2026-04-26 15:53 | 41.61674 | 28.89110 | 5002 ft | 221 kts | 308° |
| 2026-04-26 15:54 | 41.62654 | 28.87523 | 5008 ft | 221 kts | 308° |
| 2026-04-26 15:54 | 41.63631 | 28.85938 | 5003 ft | 221 kts | 308° |
| 2026-04-26 15:54 | 41.64481 | 28.84234 | 5002 ft | 221 kts | 294° |
| 2026-04-26 15:54 | 41.65030 | 28.82315 | 5004 ft | 221 kts | 290° |
| 2026-04-26 15:55 | 41.65566 | 28.80382 | 5004 ft | 222 kts | 291° |
| 2026-04-26 15:55 | 41.66021 | 28.78423 | 5003 ft | 221 kts | 275° |
| 2026-04-26 15:55 | 41.65717 | 28.76416 | 5006 ft | 227 kts | 242° |
| 2026-04-26 15:55 | 41.64544 | 28.74979 | 5002 ft | 238 kts | 208° |
| 2026-04-26 15:56 | 41.62994 | 28.74157 | 4993 ft | 241 kts | 205° |
| 2026-04-26 15:56 | 41.61407 | 28.73356 | 4999 ft | 241 kts | 205° |
| 2026-04-26 15:56 | 41.59867 | 28.72583 | 5002 ft | 230 kts | 204° |
| 2026-04-26 15:56 | 41.58307 | 28.72144 | 4997 ft | 229 kts | 185° |
| 2026-04-26 15:57 | 41.56704 | 28.72178 | 5004 ft | 231 kts | 182° |
| 2026-04-26 15:57 | 41.55098 | 28.72217 | 4999 ft | 231 kts | 182° |
| 2026-04-26 15:57 | 41.53483 | 28.72247 | 4756 ft | 232 kts | 183° |
| 2026-04-26 15:57 | 41.52421 | 28.72266 | 4545 ft | 232 kts | 183° |
| 2026-04-26 15:58 | 41.50288 | 28.72308 | 4131 ft | 223 kts | 183° |
| 2026-04-26 15:58 | 41.48774 | 28.72339 | 3842 ft | 212 kts | 183° |
| 2026-04-26 15:58 | 41.47319 | 28.72367 | 3583 ft | 207 kts | 184° |
| 2026-04-26 15:58 | 41.45906 | 28.72394 | 3305 ft | 199 kts | 184° |
| 2026-04-26 15:59 | 41.44555 | 28.72421 | 3040 ft | 191 kts | 183° |
| 2026-04-26 15:59 | 41.43226 | 28.72446 | 2795 ft | 191 kts | 184° |
| 2026-04-26 15:59 | 41.41902 | 28.72471 | 2540 ft | 189 kts | 184° |
| 2026-04-26 15:59 | 41.40621 | 28.72497 | 2302 ft | 181 kts | 184° |
| 2026-04-26 16:00 | 41.39396 | 28.72522 | 2059 ft | 169 kts | 184° |
| 2026-04-26 16:00 | 41.38281 | 28.72545 | 1859 ft | 150 kts | 184° |
| 2026-04-26 16:00 | 41.37279 | 28.72564 | 1673 ft | 142 kts | 184° |
| 2026-04-26 16:00 | 41.36292 | 28.72582 | 1464 ft | 141 kts | 184° |
| 2026-04-26 16:01 | 41.35318 | 28.72600 | 1287 ft | 139 kts | 184° |
| 2026-04-26 16:01 | 41.34354 | 28.72618 | 1106 ft | 137 kts | 183° |
| 2026-04-26 16:01 | 41.33407 | 28.72638 | 945 ft | 135 kts | 182° |
| 2026-04-26 16:01 | 41.32474 | 28.72672 | 800 ft | 134 kts | 181° |
| 2026-04-26 16:02 | 41.31541 | 28.72689 | 655 ft | 134 kts | 182° |
| 2026-04-26 16:02 | 41.30610 | 28.72707 | 492 ft | 134 kts | 182° |
| 2026-04-26 16:02 | 41.29679 | 28.72713 | 352 ft | 133 kts | 183° |
| 2026-04-26 16:02 | 41.29101 | 28.72716 | 332 ft | 105 kts | 175° |
| 2026-04-26 16:03 | 41.28528 | 28.72729 | 334 ft | 43 kts | 178° |
| 2026-04-26 16:03 | 41.28245 | 28.72739 | 334 ft | 39 kts | 179° |
| 2026-04-26 16:03 | 41.27988 | 28.72747 | 330 ft | 35 kts | 178° |
| 2026-04-26 16:03 | 41.27810 | 28.72805 | 332 ft | 10 kts | 150° |
| 2026-04-26 16:04 | 41.27769 | 28.72837 | 333 ft | 5 kts | 149° |
| 2026-04-26 16:04 | 41.27759 | 28.72844 | 333 ft | 3 kts | 149° |
| 2026-04-26 16:04 | 41.27737 | 28.72861 | 331 ft | 0 kts | 149° |
| 2026-04-26 16:04 | 41.27737 | 28.72862 | 332 ft | 1 kts | 149° |
| 2026-04-26 16:05 | 41.27725 | 28.72871 | 334 ft | 3 kts | 149° |
| 2026-04-26 16:05 | 41.27699 | 28.72891 | 333 ft | 6 kts | 149° |
| 2026-04-26 16:05 | 41.27659 | 28.72923 | 333 ft | 8 kts | 149° |
| 2026-04-26 16:05 | 41.27603 | 28.72965 | 333 ft | 10 kts | 157° |
| 2026-04-26 16:06 | 41.27544 | 28.72973 | 331 ft | 7 kts | 179° |
| 2026-04-26 16:06 | 41.27484 | 28.72974 | 333 ft | 10 kts | 179° |
| 2026-04-26 16:06 | 41.27408 | 28.72987 | 332 ft | 12 kts | 146° |
| 2026-04-26 16:06 | 41.27392 | 28.73096 | 334 ft | 13 kts | 89° |
| 2026-04-26 16:07 | 41.27394 | 28.73230 | 334 ft | 16 kts | 89° |
| 2026-04-26 16:07 | 41.27395 | 28.73336 | 334 ft | 11 kts | 89° |
| 2026-04-26 16:07 | 41.27396 | 28.73451 | 334 ft | 14 kts | 89° |
| 2026-04-26 16:07 | 41.27398 | 28.73586 | 334 ft | 16 kts | 89° |
| 2026-04-26 16:08 | 41.27400 | 28.73722 | 334 ft | 10 kts | 89° |
| 2026-04-26 16:08 | 41.27401 | 28.73787 | 334 ft | 11 kts | 89° |
| 2026-04-26 16:08 | 41.27403 | 28.73944 | 334 ft | 14 kts | 89° |
| 2026-04-26 16:08 | 41.27405 | 28.74083 | 332 ft | 16 kts | 89° |
| 2026-04-26 16:09 | 41.27407 | 28.74243 | 331 ft | 18 kts | 89° |
| 2026-04-26 16:09 | 41.27409 | 28.74404 | 333 ft | 13 kts | 89° |
| 2026-04-26 16:09 | 41.27410 | 28.74528 | 331 ft | 11 kts | 89° |
| 2026-04-26 16:09 | 41.27373 | 28.74598 | 333 ft | 11 kts | 173° |
| 2026-04-26 16:10 | 41.27328 | 28.74599 | 331 ft | 7 kts | 178° |
| 2026-04-26 16:10 | 41.27267 | 28.74601 | 334 ft | 10 kts | 179° |
| 2026-04-26 16:10 | 41.27188 | 28.74602 | 333 ft | 13 kts | 179° |
| 2026-04-26 16:10 | 41.27168 | 28.74603 | 332 ft | 2 kts | 179° |
| 2026-04-26 16:11 | 41.27154 | 28.74610 | 333 ft | 2 kts | 138° |
| 2026-04-26 16:11 | 41.27149 | 28.74653 | 334 ft | 9 kts | 89° |
| 2026-04-26 16:11 | 41.27151 | 28.74754 | 334 ft | 12 kts | 89° |
| 2026-04-26 16:11 | 41.27153 | 28.74875 | 334 ft | 14 kts | 89° |
| 2026-04-26 16:12 | 41.27154 | 28.75008 | 334 ft | 11 kts | 89° |
| 2026-04-26 16:12 | 41.27155 | 28.75115 | 332 ft | 0 kts | 89° |
| 2026-04-26 16:13 | 41.27155 | 28.75116 | 333 ft | 1 kts | 89° |
| 2026-04-26 16:13 | 41.27156 | 28.75137 | 331 ft | 3 kts | 89° |
| 2026-04-26 16:13 | 41.27156 | 28.75180 | 331 ft | 6 kts | 89° |
| 2026-04-26 16:13 | 41.27154 | 28.75242 | 332 ft | 7 kts | 109° |
| 2026-04-26 16:14 | 41.27116 | 28.75258 | 333 ft | 7 kts | 176° |
| 2026-04-26 16:14 | 41.27060 | 28.75260 | 330 ft | 9 kts | 180° |
| 2026-04-26 16:14 | 41.26891 | 28.75263 | 330 ft | 15 kts | 179° |
| 2026-04-26 16:15 | 41.26779 | 28.75265 | 332 ft | 17 kts | 179° |
| 2026-04-26 16:15 | 41.26680 | 28.75267 | 331 ft | 14 kts | 179° |
| 2026-04-26 16:15 | 41.26576 | 28.75270 | 333 ft | 16 kts | 179° |
| 2026-04-26 16:16 | 41.26362 | 28.75275 | 333 ft | 13 kts | 179° |
| 2026-04-26 16:16 | 41.26260 | 28.75277 | 330 ft | 16 kts | 179° |
| 2026-04-26 16:16 | 41.26140 | 28.75280 | 333 ft | 18 kts | 179° |
| 2026-04-26 16:16 | 41.26047 | 28.75282 | 333 ft | 14 kts | 178° |
| 2026-04-26 16:17 | 41.25973 | 28.75284 | 332 ft | 11 kts | 179° |
| 2026-04-26 16:17 | 41.25936 | 28.75229 | 332 ft | 9 kts | 265° |
| 2026-04-26 16:17 | 41.25937 | 28.75194 | 330 ft | 4 kts | 270° |
| 2026-04-26 16:17 | 41.25935 | 28.75186 | 331 ft | 2 kts | 258° |
| 2026-04-26 16:18 | 41.25929 | 28.75162 | 332 ft | 4 kts | 246° |
| 2026-04-26 16:18 | 41.25901 | 28.75072 | 332 ft | 2 kts | 252° |
| 2026-04-26 16:19 | 41.25891 | 28.75037 | 333 ft | 1 kts | 251° |
| 2026-04-26 16:19 | 41.25889 | 28.75028 | 331 ft | 0 kts | 251° |
| 2026-04-26 16:19 | 41.25889 | 28.75026 | 331 ft | 0 kts | 250° |